Time;durP1;ratioP1;P1;durP2;ratioP2;P2;SDS_P1;SDS_P2;PMS_P1;PMS_P2;Temp;Humidity;BMP_temperature;BMP_pressure;BME280_temperature;BME280_humidity;BME280_pressure;Samples;Min_cycle;Max_cycle;Signal;HPM_P1;HPM_P2
2021/09/26 00:00:11;;;;;;;9.53;6.17;;;;;;;19.42;nan;101126.88;5032037;28;20246;-73
2021/09/26 00:02:36;;;;;;;12.20;6.87;;;;;;;19.25;nan;101120.16;5035473;28;20287;-72
2021/09/26 00:05:02;;;;;;;11.03;6.93;;;;;;;19.22;nan;101133.09;5037726;28;20184;-71
2021/09/26 00:07:27;;;;;;;12.27;6.30;;;;;;;19.38;nan;101140.78;5019194;28;20666;-73
2021/09/26 00:09:52;;;;;;;15.40;6.63;;;;;;;19.54;nan;101127.69;5035771;28;20172;-73
2021/09/26 00:12:18;;;;;;;11.40;7.10;;;;;;;19.55;nan;101130.25;5036963;28;20225;-73
2021/09/26 00:14:43;;;;;;;11.47;7.50;;;;;;;19.40;nan;101130.69;5035616;28;20207;-73
2021/09/26 00:17:09;;;;;;;9.30;7.13;;;;;;;19.49;nan;101128.06;5035592;28;20230;-73
2021/09/26 00:19:34;;;;;;;14.87;7.37;;;;;;;19.36;nan;101122.84;5036842;28;20184;-73
2021/09/26 00:21:59;;;;;;;12.67;7.33;;;;;;;19.16;nan;101130.91;5036575;28;20195;-72
2021/09/26 00:24:24;;;;;;;10.90;7.70;;;;;;;19.54;nan;101125.84;5035425;28;20196;-73
2021/09/26 00:26:50;;;;;;;10.33;6.53;;;;;;;19.59;nan;101123.59;5036401;28;20180;-73
2021/09/26 00:29:15;;;;;;;9.13;5.90;;;;;;;19.16;nan;101125.50;5036517;28;20236;-73
2021/09/26 00:31:40;;;;;;;10.83;6.13;;;;;;;19.41;nan;101127.84;5036950;28;20176;-73
2021/09/26 00:34:06;;;;;;;8.87;6.03;;;;;;;19.50;nan;101127.06;5038892;28;20180;-73
2021/09/26 00:36:31;;;;;;;9.93;6.07;;;;;;;19.23;nan;101126.69;5019198;28;20183;-73
2021/09/26 00:38:56;;;;;;;9.53;6.33;;;;;;;19.24;nan;101123.00;5036467;28;20196;-73
2021/09/26 00:41:22;;;;;;;9.47;6.30;;;;;;;19.27;nan;101123.59;5018445;28;20200;-73
2021/09/26 00:43:47;;;;;;;12.13;6.27;;;;;;;19.42;nan;101126.88;5036268;28;20662;-72
2021/09/26 00:46:13;;;;;;;11.40;6.80;;;;;;;19.12;nan;101116.78;5036340;28;20172;-72
2021/09/26 00:48:38;;;;;;;13.00;6.40;;;;;;;19.35;nan;101126.53;5035196;28;20207;-72
2021/09/26 00:51:09;;;;;;;9.37;6.70;;;;;;;19.25;nan;101125.56;5036257;28;20184;-72
2021/09/26 00:53:35;;;;;;;10.43;7.63;;;;;;;19.05;nan;101129.97;5034935;28;20214;-72
2021/09/26 00:56:01;;;;;;;9.87;6.83;;;;;;;19.21;nan;101121.41;5035954;28;20207;-73
2021/09/26 00:58:29;;;;;;;12.53;7.03;;;;;;;19.12;nan;101116.78;5035888;28;20228;-72
2021/09/26 01:00:54;;;;;;;12.50;7.70;;;;;;;19.09;nan;101119.75;5036090;28;20627;-73
2021/09/26 01:03:19;;;;;;;12.63;7.90;;;;;;;18.89;nan;101120.53;5034725;28;20238;-72
2021/09/26 01:05:50;;;;;;;11.53;7.70;;;;;;;18.84;nan;101118.22;5035851;28;20196;-71
2021/09/26 01:08:32;;;;;;;11.07;7.60;;;;;;;19.20;nan;101124.25;5034749;28;20253;-72
2021/09/26 01:11:14;;;;;;;9.30;7.77;;;;;;;19.34;nan;101118.53;5034820;28;20240;-73
2021/09/26 01:13:52;;;;;;;9.67;6.90;;;;;;;19.31;nan;101114.22;5033163;28;20164;-73
2021/09/26 01:16:32;;;;;;;9.97;6.70;;;;;;;19.37;nan;101118.28;5034428;28;20247;-72
2021/09/26 01:19:32;;;;;;;14.40;7.10;;;;;;;19.11;nan;101112.38;5034116;28;20192;-72
2021/09/26 01:22:01;;;;;;;9.40;6.70;;;;;;;19.26;nan;101121.03;5034102;28;20204;-72
2021/09/26 01:24:36;;;;;;;11.63;6.17;;;;;;;18.95;nan;101117.31;5034515;28;20183;-73
2021/09/26 01:27:15;;;;;;;7.83;6.37;;;;;;;19.18;nan;101118.09;5035611;28;20172;-73
2021/09/26 01:30:10;;;;;;;11.60;6.87;;;;;;;19.07;nan;101116.31;5034905;28;20511;-73
2021/09/26 01:32:37;;;;;;;9.20;6.27;;;;;;;19.19;nan;101115.28;5035315;28;20184;-73
2021/09/26 01:35:09;;;;;;;9.60;6.43;;;;;;;18.97;nan;101113.53;5033999;28;20198;-73
2021/09/26 01:37:42;;;;;;;8.73;6.70;;;;;;;19.04;nan;101116.56;5034016;28;20740;-73
2021/09/26 01:40:25;;;;;;;8.83;6.17;;;;;;;19.02;nan;101124.81;5033940;28;20184;-73
2021/09/26 01:42:54;;;;;;;10.77;5.90;;;;;;;18.84;nan;101112.81;5017291;28;20189;-73
2021/09/26 01:45:25;;;;;;;9.87;5.60;;;;;;;18.76;nan;101104.50;5035106;28;20189;-73
2021/09/26 01:47:56;;;;;;;8.37;4.33;;;;;;;18.87;nan;101111.69;5034159;28;20212;-73
2021/09/26 01:50:23;;;;;;;9.67;5.50;;;;;;;18.74;nan;101104.63;5034164;28;20200;-73
2021/09/26 01:52:50;;;;;;;10.37;5.27;;;;;;;18.74;nan;101110.03;5033802;28;20185;-73
2021/09/26 01:55:15;;;;;;;10.47;5.67;;;;;;;18.97;nan;101115.38;5033850;28;20177;-72
2021/09/26 01:57:41;;;;;;;9.37;5.17;;;;;;;18.87;nan;101111.69;5034852;28;20215;-73
2021/09/26 02:00:09;;;;;;;9.87;5.27;;;;;;;18.68;nan;101113.25;5034832;28;20169;-73
2021/09/26 02:02:35;;;;;;;9.83;4.83;;;;;;;18.85;nan;101103.72;5033690;28;20192;-74
2021/09/26 02:05:04;;;;;;;11.73;5.00;;;;;;;18.95;nan;101118.19;5033828;28;20188;-73
2021/09/26 02:07:32;;;;;;;7.17;4.43;;;;;;;18.94;nan;101119.16;5033230;28;20192;-73
2021/09/26 02:09:58;;;;;;;9.73;4.47;;;;;;;18.76;nan;101112.59;5033223;28;20168;-72
2021/09/26 02:12:28;;;;;;;8.33;4.70;;;;;;;19.07;nan;101112.75;5034509;28;20164;-73
2021/09/26 02:14:54;;;;;;;8.50;4.67;;;;;;;19.11;nan;101116.91;5033677;28;20180;-72
2021/09/26 02:17:22;;;;;;;8.07;4.73;;;;;;;19.02;nan;101113.16;5033032;28;20172;-74
2021/09/26 02:19:49;;;;;;;11.03;4.33;;;;;;;19.08;nan;101109.06;5033106;28;20176;-72
2021/09/26 02:22:15;;;;;;;12.30;4.73;;;;;;;18.97;nan;101118.94;5034485;28;20220;-73
2021/09/26 02:24:40;;;;;;;5.90;4.13;;;;;;;19.02;nan;101121.25;5034023;28;20200;-73
2021/09/26 02:27:05;;;;;;;10.13;4.30;;;;;;;19.00;nan;101102.47;5032969;28;20199;-73
2021/09/26 02:29:35;;;;;;;9.87;4.73;;;;;;;18.96;nan;101128.03;5032964;28;20226;-73
2021/09/26 02:32:01;;;;;;;9.27;4.13;;;;;;;18.83;nan;101121.91;5016341;28;20204;-73
2021/09/26 02:34:26;;;;;;;14.03;4.37;;;;;;;18.84;nan;101126.34;5033284;28;20173;-73
2021/09/26 02:36:51;;;;;;;8.80;4.10;;;;;;;18.92;nan;101106.75;5016300;28;20175;-72
2021/09/26 02:39:17;;;;;;;9.43;3.87;;;;;;;19.03;nan;101114.88;5033948;28;20665;-73
2021/09/26 02:42:07;;;;;;;8.10;4.00;;;;;;;18.89;nan;101113.28;5032855;28;20184;-72
2021/09/26 02:44:41;;;;;;;11.70;3.20;;;;;;;19.10;nan;101116.06;5032732;28;20173;-72
2021/09/26 02:47:20;;;;;;;9.17;3.20;;;;;;;19.10;nan;101109.78;5032903;28;20230;-73
2021/09/26 02:49:45;;;;;;;7.20;3.90;;;;;;;19.26;nan;101115.59;5016163;28;20207;-73
2021/09/26 02:52:11;;;;;;;8.63;3.83;;;;;;;18.91;nan;101121.28;5032514;28;20253;-73
2021/09/26 02:54:39;;;;;;;7.10;3.67;;;;;;;19.15;nan;101112.97;5015946;28;20172;-73
2021/09/26 02:57:05;;;;;;;7.13;3.80;;;;;;;19.13;nan;101126.63;5033540;28;20250;-73
2021/09/26 02:59:31;;;;;;;8.83;3.80;;;;;;;19.02;nan;101119.41;5089945;23;20231;-67
2021/09/26 03:01:57;;;;;;;9.07;4.10;;;;;;;19.08;nan;101123.44;5053454;28;20261;-67
2021/09/26 03:04:22;;;;;;;7.13;4.13;;;;;;;18.91;nan;101122.13;5052834;28;20689;-68
2021/09/26 03:06:47;;;;;;;7.23;4.10;;;;;;;19.22;nan;101122.28;5053367;28;20180;-67
2021/09/26 03:09:13;;;;;;;7.03;4.20;;;;;;;19.24;nan;101123.84;5054042;28;20192;-68
2021/09/26 03:11:38;;;;;;;12.53;4.43;;;;;;;19.29;nan;101123.47;5052159;28;20225;-67
2021/09/26 03:14:04;;;;;;;8.33;4.60;;;;;;;19.38;nan;101122.72;5053707;28;20175;-68
2021/09/26 03:16:29;;;;;;;6.77;4.77;;;;;;;19.38;nan;101130.81;5052225;28;20176;-68
2021/09/26 03:18:55;;;;;;;10.20;5.50;;;;;;;19.52;nan;101138.63;5053360;28;20367;-68
2021/09/26 03:21:20;;;;;;;7.27;4.83;;;;;;;19.70;nan;101141.63;5053230;28;20223;-68
2021/09/26 03:23:45;;;;;;;9.57;5.80;;;;;;;19.69;nan;101139.88;5053130;28;20187;-68
2021/09/26 03:26:11;;;;;;;8.63;5.57;;;;;;;19.71;nan;101137.94;5053171;28;20171;-68
2021/09/26 03:28:36;;;;;;;11.50;6.80;;;;;;;19.11;nan;101138.56;5053043;28;20207;-68
2021/09/26 03:31:01;;;;;;;9.33;7.03;;;;;;;19.22;nan;101142.06;5053236;28;20221;-68
2021/09/26 03:33:27;;;;;;;11.47;7.07;;;;;;;19.41;nan;101132.41;5053078;28;20176;-68
2021/09/26 03:35:52;;;;;;;9.60;6.77;;;;;;;19.58;nan;101139.97;5052312;28;20182;-68
2021/09/26 03:38:17;;;;;;;12.50;7.17;;;;;;;19.61;nan;101143.25;5052800;28;20253;-68
2021/09/26 03:40:43;;;;;;;11.00;7.43;;;;;;;19.54;nan;101142.09;5052895;28;20175;-68
2021/09/26 03:43:08;;;;;;;8.80;7.33;;;;;;;19.33;nan;101133.06;5052889;28;20206;-68
2021/09/26 03:45:33;;;;;;;11.90;8.23;;;;;;;19.47;nan;101146.28;5052888;28;20210;-68
2021/09/26 03:47:59;;;;;;;15.23;8.00;;;;;;;19.60;nan;101146.97;5052669;28;20195;-68
2021/09/26 03:50:24;;;;;;;14.50;8.27;;;;;;;19.58;nan;101142.66;5051581;28;20179;-68
2021/09/26 03:52:50;;;;;;;10.53;8.80;;;;;;;19.57;nan;101152.66;5052729;28;20203;-68
2021/09/26 03:55:15;;;;;;;10.90;8.37;;;;;;;19.42;nan;101143.09;5068065;28;20179;-68
2021/09/26 03:57:41;;;;;;;11.43;9.13;;;;;;;19.37;nan;101139.94;5051443;28;20179;-68
2021/09/26 04:00:09;;;;;;;15.00;9.60;;;;;;;19.42;nan;101143.09;5052707;28;20667;-68
2021/09/26 04:02:34;;;;;;;11.73;10.53;;;;;;;19.36;nan;101140.94;5052822;28;20234;-68
2021/09/26 04:04:59;;;;;;;12.83;10.10;;;;;;;19.33;nan;101138.47;5052728;28;20229;-67
2021/09/26 04:07:24;;;;;;;14.70;10.27;;;;;;;19.30;nan;101138.72;5052707;28;20175;-68
2021/09/26 04:09:50;;;;;;;12.40;10.83;;;;;;;19.27;nan;101133.56;5052019;28;20195;-68
2021/09/26 04:12:16;;;;;;;10.70;9.60;;;;;;;19.45;nan;101139.28;5053066;28;20632;-68
2021/09/26 04:14:41;;;;;;;12.70;10.47;;;;;;;19.28;nan;101143.41;5051561;28;20180;-68
2021/09/26 04:17:06;;;;;;;18.13;10.47;;;;;;;19.50;nan;101143.31;5052080;28;20733;-68
2021/09/26 04:19:32;;;;;;;13.67;10.80;;;;;;;19.11;nan;101136.72;5052932;28;20628;-67
2021/09/26 04:21:58;;;;;;;12.80;10.70;;;;;;;19.07;nan;101142.50;5052456;28;20199;-67
2021/09/26 04:24:23;;;;;;;12.87;10.90;;;;;;;19.38;nan;101136.25;5052768;28;20176;-67
2021/09/26 04:26:48;;;;;;;12.23;10.33;;;;;;;19.42;nan;101140.41;5051594;28;20176;-67
2021/09/26 04:29:14;;;;;;;13.10;11.00;;;;;;;19.28;nan;101144.25;5052447;28;20203;-67
2021/09/26 04:31:39;;;;;;;11.57;10.37;;;;;;;19.38;nan;101157.88;5052575;28;20178;-68
2021/09/26 04:34:04;;;;;;;14.47;11.17;;;;;;;19.14;nan;101151.81;5052502;28;20201;-68
2021/09/26 04:36:29;;;;;;;12.73;10.67;;;;;;;19.17;nan;101138.91;5052505;28;20232;-69
2021/09/26 04:38:55;;;;;;;11.23;9.47;;;;;;;19.42;nan;101142.25;5052672;28;20199;-67
2021/09/26 04:41:20;;;;;;;13.57;10.00;;;;;;;19.41;nan;101138.69;5051372;28;20223;-69
2021/09/26 04:43:45;;;;;;;19.23;9.50;;;;;;;19.43;nan;101139.41;5052838;28;20190;-68
2021/09/26 04:46:11;;;;;;;15.00;11.50;;;;;;;19.31;nan;101148.53;5050993;28;20526;-67
2021/09/26 04:48:36;;;;;;;10.93;9.80;;;;;;;19.49;nan;101144.28;5056213;28;20203;-67
2021/09/26 04:51:02;;;;;;;11.47;9.40;;;;;;;19.49;nan;101143.44;5056216;28;20557;-67
2021/09/26 04:53:27;;;;;;;13.50;10.10;;;;;;;19.22;nan;101138.50;5056484;28;20618;-66
2021/09/26 04:55:52;;;;;;;13.00;8.77;;;;;;;19.24;nan;101147.34;5055994;28;20172;-67
2021/09/26 04:58:17;;;;;;;10.83;8.67;;;;;;;19.33;nan;101155.56;5055752;28;20693;-67
2021/09/26 05:00:46;;;;;;;11.80;9.83;;;;;;;19.28;nan;101151.50;5056092;28;20175;-67
2021/09/26 05:03:11;;;;;;;11.93;9.67;;;;;;;19.39;nan;101148.78;5054813;28;20199;-69
2021/09/26 05:05:36;;;;;;;15.17;10.80;;;;;;;19.44;nan;101151.94;5071329;28;20186;-67
2021/09/26 05:08:02;;;;;;;11.47;10.27;;;;;;;19.35;nan;101141.91;5055866;28;20195;-68
2021/09/26 05:10:27;;;;;;;20.93;10.30;;;;;;;19.09;nan;101149.50;5055953;28;20186;-67
2021/09/26 05:12:52;;;;;;;12.33;10.90;;;;;;;18.66;nan;101147.66;5056113;28;20171;-67
2021/09/26 05:15:18;;;;;;;14.73;11.17;;;;;;;18.82;nan;101152.66;5056085;28;20183;-67
2021/09/26 05:17:43;;;;;;;14.63;11.20;;;;;;;18.88;nan;101157.53;5055779;28;20211;-67
2021/09/26 05:20:09;;;;;;;11.70;9.47;;;;;;;19.20;nan;101165.69;5055756;28;20262;-68
2021/09/26 05:22:35;;;;;;;12.33;8.93;;;;;;;19.16;nan;101163.38;5055420;28;20692;-67
2021/09/26 05:25:00;;;;;;;17.80;11.47;;;;;;;19.11;nan;101165.63;5054323;28;20206;-68
2021/09/26 05:27:26;;;;;;;13.03;11.73;;;;;;;19.17;nan;101165.09;5055567;28;20628;-68
2021/09/26 05:29:51;;;;;;;12.80;11.20;;;;;;;19.30;nan;101165.78;5055408;28;20606;-68
2021/09/26 05:32:16;;;;;;;15.70;11.80;;;;;;;19.30;nan;101165.78;5055602;28;20530;-68
2021/09/26 05:34:42;;;;;;;13.73;12.00;;;;;;;19.33;nan;101166.41;5055690;28;20252;-68
2021/09/26 05:37:07;;;;;;;17.23;12.13;;;;;;;19.48;nan;101157.97;5055696;28;20175;-68
2021/09/26 05:39:32;;;;;;;13.90;12.17;;;;;;;19.44;nan;101157.38;5055536;28;20207;-67
2021/09/26 05:41:59;;;;;;;17.50;11.27;;;;;;;19.36;nan;101165.28;5055372;28;20207;-68
2021/09/26 05:44:24;;;;;;;15.67;12.77;;;;;;;19.32;nan;101159.25;5055472;28;20172;-68
2021/09/26 05:46:50;;;;;;;13.67;12.07;;;;;;;19.32;nan;101166.50;5055628;28;20680;-68
2021/09/26 05:49:15;;;;;;;18.67;12.07;;;;;;;19.50;nan;101158.69;5055526;28;20207;-68
2021/09/26 05:51:41;;;;;;;14.37;11.57;;;;;;;19.57;nan;101163.47;5055406;28;20176;-67
2021/09/26 05:54:06;;;;;;;14.13;11.53;;;;;;;19.38;nan;101157.88;5055320;28;20211;-68
2021/09/26 05:56:31;;;;;;;15.67;12.13;;;;;;;19.44;nan;101161.91;5037326;28;20184;-68
2021/09/26 05:58:56;;;;;;;15.13;12.00;;;;;;;19.22;nan;101152.91;5054499;28;20219;-68
2021/09/26 06:01:22;;;;;;;14.30;12.53;;;;;;;19.21;nan;101158.44;5055417;28;20611;-68
2021/09/26 06:03:47;;;;;;;13.53;10.57;;;;;;;19.34;nan;101169.97;5055436;28;20183;-68
2021/09/26 06:06:13;;;;;;;17.37;12.80;;;;;;;19.16;nan;101164.22;5055225;28;20175;-67
2021/09/26 06:08:38;;;;;;;16.03;11.87;;;;;;;19.47;nan;101165.22;5053733;28;20207;-67
2021/09/26 06:11:03;;;;;;;17.33;12.57;;;;;;;19.24;nan;101167.16;5053386;28;20205;-69
2021/09/26 06:13:29;;;;;;;14.77;11.83;;;;;;;19.74;nan;101172.03;5054821;28;20254;-69
2021/09/26 06:15:54;;;;;;;15.37;11.30;;;;;;;19.62;nan;101171.19;5054859;28;20201;-69
2021/09/26 06:18:19;;;;;;;15.97;12.57;;;;;;;19.40;nan;101166.75;5054842;28;20191;-69
2021/09/26 06:20:45;;;;;;;15.60;12.40;;;;;;;19.44;nan;101175.44;5054962;28;20780;-68
2021/09/26 06:23:11;;;;;;;13.83;11.87;;;;;;;19.43;nan;101177.31;5054340;28;20292;-68
2021/09/26 06:25:36;;;;;;;18.03;12.73;;;;;;;19.14;nan;101168.91;5054369;28;20262;-70
2021/09/26 06:28:02;;;;;;;14.63;12.53;;;;;;;19.07;nan;101174.97;5053150;28;20196;-69
2021/09/26 06:30:27;;;;;;;16.70;12.47;;;;;;;19.02;nan;101169.94;5053102;28;20176;-69
2021/09/26 06:32:52;;;;;;;16.97;12.90;;;;;;;19.14;nan;101174.31;5054387;28;20175;-69
2021/09/26 06:35:17;;;;;;;14.13;12.10;;;;;;;19.31;nan;101183.72;5054275;28;20179;-69
2021/09/26 06:37:43;;;;;;;12.97;11.63;;;;;;;19.27;nan;101185.84;5054518;28;20215;-69
2021/09/26 06:40:09;;;;;;;15.30;12.57;;;;;;;19.36;nan;101182.38;5054349;28;20175;-68
2021/09/26 06:42:34;;;;;;;17.93;12.47;;;;;;;19.23;nan;101175.41;5054640;28;20258;-67
2021/09/26 06:45:00;;;;;;;15.87;13.07;;;;;;;19.30;nan;101182.00;5061943;28;20183;-68
2021/09/26 06:47:25;;;;;;;18.97;12.73;;;;;;;19.47;nan;101181.47;5062410;28;20557;-68
2021/09/26 06:49:51;;;;;;;17.40;13.63;;;;;;;19.54;nan;101185.41;5055947;28;20196;-67
2021/09/26 06:52:16;;;;;;;15.77;12.57;;;;;;;19.40;nan;101177.56;5054169;28;20588;-68
2021/09/26 06:54:42;;;;;;;13.50;11.97;;;;;;;19.59;nan;101182.28;5036075;28;20179;-67
2021/09/26 06:57:08;;;;;;;16.73;12.03;;;;;;;19.40;nan;101182.13;5054099;28;20241;-68
2021/09/26 06:59:33;;;;;;;20.10;12.20;;;;;;;19.72;nan;101176.72;5052367;28;20286;-68
2021/09/26 07:01:58;;;;;;;14.07;10.93;;;;;;;20.13;nan;101186.66;5053579;28;20222;-68
2021/09/26 07:04:25;;;;;;;16.17;12.07;;;;;;;19.86;nan;101187.19;5053561;28;20183;-67
2021/09/26 07:06:50;;;;;;;15.03;11.10;;;;;;;20.25;nan;101197.28;5053753;28;20267;-67
2021/09/26 07:09:17;;;;;;;14.23;10.27;;;;;;;20.55;nan;101198.31;5053489;28;20250;-68
2021/09/26 07:11:42;;;;;;;14.60;11.03;;;;;;;20.66;nan;101192.78;5052335;28;20600;-67
2021/09/26 07:14:07;;;;;;;13.93;10.97;;;;;;;20.47;nan;101198.13;5052247;28;20199;-66
2021/09/26 07:16:32;;;;;;;14.33;12.00;;;;;;;20.25;nan;101196.41;5053270;28;20202;-67
2021/09/26 07:18:58;;;;;;;15.40;11.60;;;;;;;20.64;nan;101180.34;5053464;28;20207;-67
2021/09/26 07:21:23;;;;;;;15.87;11.60;;;;;;;20.46;nan;101191.88;5053440;28;20203;-67
2021/09/26 07:23:48;;;;;;;16.60;11.37;;;;;;;20.19;nan;101191.53;5053752;28;20194;-68
2021/09/26 07:26:14;;;;;;;14.27;11.67;;;;;;;20.81;nan;101190.53;5052206;28;20221;-67
2021/09/26 07:28:39;;;;;;;11.87;10.67;;;;;;;20.59;nan;101188.91;5035507;28;20191;-68
2021/09/26 07:31:05;;;;;;;14.80;9.97;;;;;;;20.85;nan;101195.56;5053171;28;20171;-68
2021/09/26 07:33:30;;;;;;;14.57;10.50;;;;;;;20.58;nan;101198.03;5069134;28;20172;-68
2021/09/26 07:35:55;;;;;;;16.17;10.90;;;;;;;20.59;nan;101195.19;5053968;28;20183;-68
2021/09/26 07:38:21;;;;;;;12.47;10.47;;;;;;;21.07;nan;101190.88;5053545;28;20653;-68
2021/09/26 07:40:46;;;;;;;11.70;10.43;;;;;;;21.18;nan;101190.75;5053396;28;20176;-69
2021/09/26 07:43:12;;;;;;;13.33;10.70;;;;;;;21.12;nan;101191.31;5053124;28;20195;-69
2021/09/26 07:45:37;;;;;;;12.47;9.67;;;;;;;20.99;nan;101190.72;5052321;28;20180;-68
2021/09/26 07:48:03;;;;;;;10.30;9.20;;;;;;;21.84;nan;101194.50;5053500;28;20230;-69
2021/09/26 07:50:28;;;;;;;11.03;8.80;;;;;;;22.00;nan;101183.06;5052954;28;20672;-68
2021/09/26 07:52:54;;;;;;;10.60;8.97;;;;;;;22.13;nan;101183.63;5052479;28;20180;-69
2021/09/26 07:55:19;;;;;;;12.00;9.93;;;;;;;22.03;nan;101188.22;5053906;28;20175;-68
2021/09/26 07:57:45;;;;;;;11.57;10.00;;;;;;;22.03;nan;101182.78;5053668;28;20191;-68
2021/09/26 08:00:11;;;;;;;11.20;9.23;;;;;;;21.65;nan;101182.81;5051749;28;20170;-69
2021/09/26 08:02:36;;;;;;;10.80;9.10;;;;;;;22.17;nan;101188.75;5052645;28;20203;-67
2021/09/26 08:05:02;;;;;;;12.30;11.00;;;;;;;21.33;nan;101167.66;5053202;28;20183;-69
2021/09/26 08:07:29;;;;;;;13.50;10.03;;;;;;;21.48;nan;101178.94;5051523;28;20184;-69
2021/09/26 08:09:55;;;;;;;14.27;9.87;;;;;;;21.71;nan;101193.09;5051875;28;20203;-70
2021/09/26 08:12:20;;;;;;;10.70;9.60;;;;;;;22.18;nan;101190.47;5053324;28;20172;-69
2021/09/26 08:14:46;;;;;;;12.53;10.53;;;;;;;21.38;nan;101187.09;5068486;28;20261;-67
2021/09/26 08:17:11;;;;;;;11.80;9.93;;;;;;;22.03;nan;101182.78;5053281;28;20225;-68
2021/09/26 08:19:37;;;;;;;13.93;10.13;;;;;;;21.78;nan;101170.63;5052652;28;20665;-68
2021/09/26 08:22:06;;;;;;;12.40;10.27;;;;;;;21.83;nan;101195.50;5054249;28;20273;-69
2021/09/26 08:24:32;;;;;;;12.23;9.53;;;;;;;22.20;nan;101178.44;5056648;28;20178;-69
2021/09/26 08:26:58;;;;;;;14.13;10.70;;;;;;;21.25;nan;101177.53;5055470;28;20659;-68
2021/09/26 08:29:23;;;;;;;14.17;9.80;;;;;;;21.59;nan;101184.25;5056646;28;20191;-69
2021/09/26 08:31:49;;;;;;;23.17;19.50;;;;;;;21.53;nan;101195.66;5057254;28;20176;-70
2021/09/26 08:34:14;;;;;;;14.20;10.27;;;;;;;22.14;nan;101193.47;5057365;28;20175;-70
2021/09/26 08:36:39;;;;;;;10.27;8.33;;;;;;;23.09;nan;101181.47;5056845;28;20179;-69
2021/09/26 08:39:05;;;;;;;11.00;9.80;;;;;;;22.28;nan;101191.28;5057343;28;20195;-69
2021/09/26 08:41:31;;;;;;;10.50;9.30;;;;;;;21.92;nan;101191.06;5039070;28;20257;-67
2021/09/26 08:43:56;;;;;;;11.87;8.63;;;;;;;22.89;nan;101171.72;5055003;28;20546;-69
2021/09/26 08:46:21;;;;;;;12.37;9.60;;;;;;;23.16;nan;101166.25;5055527;28;20171;-69
2021/09/26 08:48:47;;;;;;;;;;;;;;;22.94;nan;101166.66;5056812;28;20191;-68
2021/09/26 08:51:12;;;;;;;12.97;8.97;;;;;;;23.20;nan;101162.19;5054991;28;19970;-68
2021/09/26 08:53:38;;;;;;;11.80;8.90;;;;;;;23.18;nan;101164.22;5056299;28;20657;-69
2021/09/26 08:56:03;;;;;;;8.20;7.27;;;;;;;23.91;nan;101172.22;5055505;28;20180;-68
2021/09/26 08:58:29;;;;;;;16.73;8.67;;;;;;;23.88;nan;101142.53;5072493;23;20225;-72
2021/09/26 09:00:54;;;;;;;9.57;8.47;;;;;;;22.86;nan;101137.50;5076029;28;20217;-73
2021/09/26 09:03:20;;;;;;;9.97;8.50;;;;;;;22.78;nan;101151.00;5058427;28;20218;-73
2021/09/26 09:05:51;;;;;;;10.33;8.17;;;;;;;22.46;nan;101152.28;5058363;28;20548;-74
2021/09/26 09:08:18;;;;;;;10.43;8.00;;;;;;;22.75;nan;101160.31;5058898;28;20182;-73
2021/09/26 09:10:49;;;;;;;12.27;7.77;;;;;;;22.87;nan;101151.97;5058582;28;20205;-73
2021/09/26 09:13:18;;;;;;;10.00;7.37;;;;;;;22.75;nan;101151.28;5058510;28;20159;-73
2021/09/26 09:15:52;;;;;;;8.87;6.93;;;;;;;22.42;nan;101175.38;5041337;28;20248;-72
2021/09/26 09:18:17;;;;;;;8.43;7.47;;;;;;;22.90;nan;101157.94;5059083;28;20174;-75
2021/09/26 09:20:43;;;;;;;8.90;7.13;;;;;;;23.19;nan;101144.16;5058237;28;20552;-73
2021/09/26 09:23:13;;;;;;;8.57;7.27;;;;;;;23.31;nan;101156.50;5076415;28;20522;-73
2021/09/26 09:25:44;;;;;;;9.60;6.70;;;;;;;22.86;nan;101144.81;5058259;28;20171;-74
2021/09/26 09:28:13;;;;;;;9.70;6.30;;;;;;;23.24;nan;101130.91;5076034;28;20163;-73
2021/09/26 09:30:48;;;;;;;8.17;6.20;;;;;;;23.40;nan;101119.28;5076849;28;20194;-73
2021/09/26 09:33:14;;;;;;;7.17;5.87;;;;;;;23.24;nan;101133.63;5058042;28;20261;-74
2021/09/26 09:35:48;;;;;;;6.70;5.37;;;;;;;23.44;nan;101130.75;5076406;28;20222;-72
2021/09/26 09:38:18;;;;;;;9.00;6.00;;;;;;;23.57;nan;101104.84;5059389;28;20163;-72
2021/09/26 09:40:44;;;;;;;7.30;5.20;;;;;;;23.29;nan;101111.38;5076134;28;20181;-73
2021/09/26 09:43:09;;;;;;;8.63;5.47;;;;;;;23.05;nan;101101.13;5057766;28;20194;-73
2021/09/26 09:45:47;;;;;;;7.33;4.70;;;;;;;24.31;nan;101126.13;5057816;28;20206;-73
2021/09/26 09:48:21;;;;;;;5.63;4.70;;;;;;;24.26;nan;101101.19;5058580;28;20632;-72
2021/09/26 09:51:04;;;;;;;10.37;4.53;;;;;;;24.04;nan;101109.91;5058194;28;20643;-74
2021/09/26 09:53:36;;;;;;;5.00;4.40;;;;;;;24.55;nan;101132.72;5058704;28;20171;-73
2021/09/26 09:56:06;;;;;;;6.40;4.53;;;;;;;24.10;nan;101108.41;5076322;28;20670;-74
2021/09/26 09:58:34;;;;;;;8.23;3.90;;;;;;;24.48;nan;101105.22;5057416;28;20336;-72
2021/09/26 10:01:00;;;;;;;6.10;3.93;;;;;;;25.06;nan;101112.59;5059353;28;20162;-73
2021/09/26 10:03:43;;;;;;;4.60;3.67;;;;;;;24.92;nan;101105.88;5075492;28;20289;-74
2021/09/26 10:06:26;;;;;;;5.83;3.90;;;;;;;25.23;nan;101107.97;5077085;28;20167;-73
2021/09/26 10:08:53;;;;;;;6.73;3.77;;;;;;;25.53;nan;101095.53;5076090;28;20197;-73
2021/09/26 10:11:18;;;;;;;4.47;3.10;;;;;;;25.62;nan;101101.81;5075393;28;20718;-72
2021/09/26 10:13:45;;;;;;;3.83;3.00;;;;;;;25.54;nan;101086.28;5076093;28;20179;-75
2021/09/26 10:16:11;;;;;;;4.97;3.00;;;;;;;25.02;nan;101081.19;5041701;28;20183;-73
2021/09/26 10:18:38;;;;;;;5.10;3.70;;;;;;;25.22;nan;101081.69;5056857;28;20194;-75
2021/09/26 10:21:05;;;;;;;4.77;3.17;;;;;;;24.88;nan;101052.63;5076520;28;20183;-76
2021/09/26 10:23:30;;;;;;;5.37;3.67;;;;;;;24.85;nan;101057.56;5076305;28;20174;-74
2021/09/26 10:25:57;;;;;;;5.20;3.30;;;;;;;25.40;nan;101067.88;5058749;28;20286;-72
2021/09/26 10:28:29;;;;;;;5.33;2.90;;;;;;;25.59;nan;101074.84;5056799;28;20179;-72
2021/09/26 10:31:02;;;;;;;3.77;2.97;;;;;;;25.35;nan;101059.34;5074801;28;20182;-73
2021/09/26 10:33:28;;;;;;;3.53;3.10;;;;;;;25.59;nan;101056.56;5057618;28;20148;-74
2021/09/26 10:35:55;;;;;;;3.10;2.70;;;;;;;26.35;nan;101074.34;5075002;28;20285;-74
2021/09/26 10:38:21;;;;;;;4.97;2.47;;;;;;;26.58;nan;101063.47;5076730;28;20174;-72
2021/09/26 10:40:47;;;;;;;4.13;2.60;;;;;;;26.96;nan;101039.78;5079354;28;20201;-73
2021/09/26 10:43:28;;;;;;;3.97;2.50;;;;;;;26.93;nan;101045.63;5076004;28;20218;-73
2021/09/26 10:46:23;;;;;;;5.63;2.63;;;;;;;26.66;nan;101030.56;5074875;28;20166;-73
2021/09/26 10:49:00;;;;;;;5.37;2.50;;;;;;;26.13;nan;101045.88;5074607;28;20202;-73
2021/09/26 10:51:52;;;;;;;3.90;2.60;;;;;;;27.66;nan;101029.44;5056915;28;20199;-72
2021/09/26 10:54:30;;;;;;;2.77;2.10;;;;;;;27.92;nan;101019.91;5056773;28;20186;-73
2021/09/26 10:57:08;;;;;;;2.43;2.10;;;;;;;30.22;nan;101022.38;5056483;28;20178;-72
2021/09/26 10:59:40;;;;;;;4.13;1.83;;;;;;;30.11;nan;100969.63;5073863;28;20743;-72
2021/09/26 11:02:21;;;;;;;7.47;1.63;;;;;;;31.48;nan;100994.00;5056075;28;20187;-74
2021/09/26 11:04:47;;;;;;;3.40;1.70;;;;;;;31.80;nan;100994.19;5074219;28;20179;-75
2021/09/26 11:07:19;;;;;;;1.70;1.60;;;;;;;33.90;nan;101010.50;5056683;28;20175;-74
2021/09/26 11:09:52;;;;;;;2.22;1.77;;;;;;;33.40;nan;101004.16;5057173;28;20195;-73
2021/09/26 11:12:36;;;;;;;2.05;1.63;;;;;;;33.90;nan;101004.13;5056330;28;20613;-74
2021/09/26 11:15:04;;;;;;;4.35;1.73;;;;;;;32.32;nan;100993.16;5057189;28;20205;-73
2021/09/26 11:17:59;;;;;;;2.35;1.70;;;;;;;32.48;nan;100986.28;5075321;28;20171;-73
2021/09/26 11:20:30;;;;;;;1.85;1.70;;;;;;;34.37;nan;101002.50;5066559;28;20707;-74
2021/09/26 11:23:04;;;;;;;2.38;1.40;;;;;;;33.45;nan;101012.63;5077265;28;20195;-74
2021/09/26 11:26:00;;;;;;;4.22;1.88;;;;;;;33.97;nan;101022.34;5075899;28;20660;-74
2021/09/26 11:28:32;;;;;;;3.58;1.58;;;;;;;32.17;nan;100992.56;5076472;28;20191;-74
2021/09/26 11:30:58;;;;;;;1.70;1.60;;;;;;;32.20;nan;100990.22;5042970;28;20612;-74
2021/09/26 11:33:24;;;;;;;2.60;1.70;;;;;;;31.82;nan;100994.81;5058788;28;20167;-74
2021/09/26 11:35:49;;;;;;;2.42;1.63;;;;;;;32.24;nan;100990.63;5078545;28;20198;-74